createdAt,value
2023-08-11T00:01:18.972Z,98263.38
2023-08-11T00:03:46.184Z,98251.56
2023-08-11T00:06:13.627Z,98251.31
2023-08-11T00:08:41.161Z,98253.38
2023-08-11T00:11:07.928Z,98260.25
2023-08-11T00:13:35.216Z,98259.88
2023-08-11T00:16:06.079Z,98260.44
2023-08-11T00:18:33.012Z,98256.84
2023-08-11T00:21:00.105Z,98266.19
2023-08-11T00:23:26.983Z,98253.78
2023-08-11T00:25:53.740Z,98260.19
2023-08-11T00:28:20.634Z,98255.31
2023-08-11T00:30:47.455Z,98254.09
2023-08-11T00:33:14.371Z,98249.78
2023-08-11T00:35:43.330Z,98253.56
2023-08-11T00:38:11.340Z,98244.41
2023-08-11T00:40:38.444Z,98246.22
2023-08-11T00:43:05.390Z,98248.88
2023-08-11T00:45:32.407Z,98248.88
2023-08-11T00:47:59.644Z,98245.81
2023-08-11T00:50:27.494Z,98258.63
2023-08-11T00:52:55.111Z,98240.50
2023-08-11T00:55:23.165Z,98247.78
2023-08-11T00:57:50.345Z,98253.25
2023-08-11T01:00:17.610Z,98251.69
2023-08-11T01:02:45.879Z,98251.13
2023-08-11T01:05:15.940Z,98257.94
2023-08-11T01:07:48.471Z,98256.47
2023-08-11T01:10:31.089Z,98253.38
2023-08-11T01:13:12.999Z,98247.41
2023-08-11T01:15:42.243Z,98258.41
2023-08-11T01:18:11.385Z,98251.91
2023-08-11T01:20:39.272Z,98256.22
2023-08-11T01:23:08.140Z,98248.44
2023-08-11T01:25:35.461Z,98252.63
2023-08-11T01:28:02.324Z,98244.16
2023-08-11T01:30:31.328Z,98247.91
2023-08-11T01:32:58.478Z,98252.19
2023-08-11T01:35:38.506Z,98259.88
2023-08-11T01:38:10.014Z,98247.91
2023-08-11T01:40:37.841Z,98247.91
2023-08-11T01:43:06.979Z,98241.94
2023-08-11T01:45:34.468Z,98246.53
2023-08-11T01:48:03.091Z,98252.09
2023-08-11T01:50:31.774Z,98249.06
2023-08-11T01:52:58.841Z,98248.38
2023-08-11T01:55:26.712Z,98253.47
2023-08-11T01:57:59.405Z,98246.97
2023-08-11T02:00:28.492Z,98246.84
2023-08-11T02:02:56.198Z,98242.69
2023-08-11T02:05:26.139Z,98239.34
2023-08-11T02:07:54.356Z,98241.81
2023-08-11T02:10:21.466Z,98237.97
2023-08-11T02:12:50.093Z,98236.28
2023-08-11T02:15:17.232Z,98235.88
2023-08-11T02:17:44.210Z,98235.88
2023-08-11T02:20:20.765Z,98232.13
2023-08-11T02:22:47.785Z,98233.94
2023-08-11T02:25:16.138Z,98236.03
2023-08-11T02:27:43.456Z,98234.94
2023-08-11T02:30:12.808Z,98229.22
2023-08-11T02:32:40.640Z,98238.81
2023-08-11T02:35:08.202Z,98232.81
2023-08-11T02:37:35.220Z,98228.78
2023-08-11T02:40:02.183Z,98226.44
2023-08-11T02:42:29.169Z,98229.09
2023-08-11T02:44:56.003Z,98229.38
2023-08-11T02:47:22.878Z,98226.31
2023-08-11T02:49:49.724Z,98234.22
2023-08-11T02:52:16.725Z,98233.81
2023-08-11T02:54:43.612Z,98233.56
2023-08-11T02:57:10.397Z,98235.50
2023-08-11T02:59:37.256Z,98223.84
2023-08-11T03:02:04.147Z,98231.47
2023-08-11T03:04:31.066Z,98237.28
2023-08-11T03:06:57.964Z,98238.28
2023-08-11T03:09:24.782Z,98231.59
2023-08-11T03:11:51.693Z,98236.88
2023-08-11T03:14:19.136Z,98231.03
2023-08-11T03:16:45.977Z,98229.75
2023-08-11T03:19:13.100Z,98240.19
2023-08-11T03:21:40.606Z,98237.69
2023-08-11T03:24:07.794Z,98238.66
2023-08-11T03:26:35.659Z,98233.78
2023-08-11T03:29:04.924Z,98231.97
2023-08-11T03:31:34.009Z,98232.97
2023-08-11T03:34:01.055Z,98241.72
2023-08-11T03:36:28.112Z,98240.59
2023-08-11T03:38:55.504Z,98246.41
2023-08-11T03:41:22.513Z,98241.00
2023-08-11T03:43:50.187Z,98243.78
2023-08-11T03:46:17.619Z,98246.41
2023-08-11T03:48:44.632Z,98253.50
2023-08-11T03:51:12.429Z,98239.78
2023-08-11T03:53:40.334Z,98244.63
2023-08-11T03:56:08.787Z,98246.06
2023-08-11T03:58:41.100Z,98253.91
2023-08-11T04:01:09.208Z,98245.88
2023-08-11T04:03:36.347Z,98251.84
2023-08-11T04:06:03.365Z,98254.19
2023-08-11T04:08:30.219Z,98262.94
2023-08-11T04:10:57.154Z,98263.22
2023-08-11T04:13:24.062Z,98264.88
2023-08-11T04:15:52.902Z,98272.66
2023-08-11T04:18:20.931Z,98271.84
2023-08-11T04:20:48.710Z,98275.09
2023-08-11T04:23:15.717Z,98275.63
2023-08-11T04:25:44.595Z,98276.59
2023-08-11T04:28:11.882Z,98274.38
2023-08-11T04:30:40.015Z,98273.56
2023-08-11T04:33:08.357Z,98276.88
2023-08-11T04:35:36.670Z,98282.56
2023-08-11T04:38:05.454Z,98285.50
2023-08-11T04:40:35.275Z,98291.31
2023-08-11T04:43:02.204Z,98281.44
2023-08-11T04:45:35.664Z,98285.19
2023-08-11T04:48:03.242Z,98288.69
2023-08-11T04:50:33.517Z,98283.06
2023-08-11T04:53:00.544Z,98285.97
2023-08-11T04:55:28.120Z,98288.06
2023-08-11T04:57:55.739Z,98284.56
2023-08-11T05:00:24.050Z,98290.63
2023-08-11T05:02:52.758Z,98289.38
2023-08-11T05:05:20.927Z,98296.16
2023-08-11T05:07:47.714Z,98295.28
2023-08-11T05:10:15.906Z,98301.53
2023-08-11T05:12:42.771Z,98292.19
2023-08-11T05:15:10.494Z,98300.91
2023-08-11T05:17:37.426Z,98296.41
2023-08-11T05:20:08.649Z,98296.97
2023-08-11T05:22:37.076Z,98297.94
2023-08-11T05:25:05.615Z,98303.34
2023-08-11T05:27:32.828Z,98305.13
2023-08-11T05:30:00.527Z,98308.38
2023-08-11T05:32:28.083Z,98307.94
2023-08-11T05:34:57.474Z,98310.84
2023-08-11T05:37:26.165Z,98314.06
2023-08-11T05:39:54.846Z,98315.50
2023-08-11T05:42:22.383Z,98324.22
2023-08-11T05:44:49.196Z,98321.34
2023-08-11T05:47:16.713Z,98321.66
2023-08-11T05:49:43.628Z,98326.31
2023-08-11T05:52:11.163Z,98319.34
2023-08-11T05:54:38.258Z,98315.72
2023-08-11T05:57:05.296Z,98318.88
2023-08-11T05:59:32.781Z,98326.31
2023-08-11T06:02:00.112Z,98322.44
2023-08-11T06:04:28.162Z,98325.06
2023-08-11T06:06:54.983Z,98319.00
2023-08-11T06:09:23.268Z,98314.41
2023-08-11T06:11:50.078Z,98319.66
2023-08-11T06:14:16.969Z,98313.91
2023-08-11T06:16:43.807Z,98326.53
2023-08-11T06:19:10.736Z,98315.09
2023-08-11T06:21:38.713Z,98316.50
2023-08-11T06:24:05.840Z,98324.25
2023-08-11T06:26:32.984Z,98325.81
2023-08-11T06:28:59.816Z,98322.56
2023-08-11T06:31:26.729Z,98325.22
2023-08-11T06:33:53.583Z,98330.53
2023-08-11T06:36:20.894Z,98334.81
2023-08-11T06:38:47.902Z,98332.88
2023-08-11T06:41:14.768Z,98329.47
2023-08-11T06:43:42.800Z,98333.69
2023-08-11T06:46:09.717Z,98342.09
2023-08-11T06:48:36.663Z,98344.00
2023-08-11T06:51:03.627Z,98330.31
2023-08-11T06:53:30.444Z,98338.81
2023-08-11T06:55:57.397Z,98341.59
2023-08-11T06:58:26.223Z,98332.94
2023-08-11T07:00:53.788Z,98337.66
2023-08-11T07:03:20.874Z,98338.84
2023-08-11T07:05:47.909Z,98335.06
2023-08-11T07:08:14.663Z,98342.09
2023-08-11T07:10:41.454Z,98346.59
2023-08-11T07:13:08.334Z,98350.19
2023-08-11T07:15:37.476Z,98353.06
2023-08-11T07:18:05.905Z,98357.59
2023-08-11T07:20:32.704Z,98359.88
2023-08-11T07:22:59.546Z,98353.66
2023-08-11T07:25:26.344Z,98353.53
2023-08-11T07:27:53.117Z,98354.34
2023-08-11T07:30:20.149Z,98343.94
2023-08-11T07:32:47.214Z,98348.34
2023-08-11T07:35:14.178Z,98356.91
2023-08-11T07:37:41.121Z,98355.81
2023-08-11T07:40:09.105Z,98350.47
2023-08-11T07:42:36.169Z,98355.31
2023-08-11T07:45:02.948Z,98355.72
2023-08-11T07:47:29.754Z,98350.00
2023-08-11T07:49:58.226Z,98340.78
2023-08-11T07:52:25.382Z,98348.84
2023-08-11T07:54:52.416Z,98356.75
2023-08-11T07:57:19.497Z,98347.53
2023-08-11T07:59:46.349Z,98339.63
2023-08-11T08:02:14.545Z,98351.59
2023-08-11T08:04:41.488Z,98352.53
2023-08-11T08:07:08.528Z,98345.56
2023-08-11T08:09:35.991Z,98349.19
2023-08-11T08:12:06.033Z,98347.25
2023-08-11T08:14:32.985Z,98345.50
2023-08-11T08:17:02.370Z,98339.03
2023-08-11T08:19:29.376Z,98347.53
2023-08-11T08:21:56.162Z,98349.03
2023-08-11T08:24:23.011Z,98354.38
2023-08-11T08:26:49.836Z,98354.88
2023-08-11T08:29:16.647Z,98353.16
2023-08-11T08:31:43.512Z,98355.84
2023-08-11T08:34:10.586Z,98351.75
2023-08-11T08:36:37.662Z,98351.94
2023-08-11T08:39:06.119Z,98356.94
2023-08-11T08:41:39.151Z,98356.22
2023-08-11T08:44:06.005Z,98354.31
2023-08-11T08:46:34.644Z,98353.97
2023-08-11T08:49:24.628Z,98350.22
2023-08-11T08:51:51.462Z,98353.44
2023-08-11T08:54:18.444Z,98350.38
2023-08-11T08:56:45.473Z,98357.50
2023-08-11T08:59:12.517Z,98349.78
2023-08-11T09:01:40.120Z,98358.66
2023-08-11T09:04:09.651Z,98358.66
2023-08-11T09:06:36.894Z,98350.47
2023-08-11T09:09:06.026Z,98346.25
2023-08-11T09:11:32.820Z,98343.38
2023-08-11T09:14:07.789Z,98348.84
2023-08-11T09:16:36.092Z,98346.63
2023-08-11T09:19:05.299Z,98345.50
2023-08-11T09:21:32.366Z,98345.84
2023-08-11T09:23:59.264Z,98345.72
2023-08-11T09:26:26.226Z,98345.06
2023-08-11T09:28:53.927Z,98341.22
2023-08-11T09:31:25.475Z,98347.03
2023-08-11T09:33:53.632Z,98336.78
2023-08-11T09:36:21.336Z,98341.13
2023-08-11T09:38:49.499Z,98342.09
2023-08-11T09:41:17.712Z,98340.03
2023-08-11T09:43:51.294Z,98336.31
2023-08-11T09:46:26.022Z,98334.25
2023-08-11T09:48:54.939Z,98334.78
2023-08-11T09:51:22.685Z,98326.44
2023-08-11T09:53:50.531Z,98328.91
2023-08-11T09:56:19.384Z,98324.19
2023-08-11T09:58:48.267Z,98330.06
2023-08-11T10:01:20.957Z,98314.56
2023-08-11T10:03:49.556Z,98320.13
2023-08-11T10:06:22.682Z,98306.00
2023-08-11T10:08:51.774Z,98313.47
2023-08-11T10:11:21.212Z,98306.66
2023-08-11T10:13:48.720Z,98299.38
2023-08-11T10:16:15.991Z,98304.91
2023-08-11T10:18:44.253Z,98304.16
2023-08-11T10:21:11.618Z,98306.41
2023-08-11T10:23:39.024Z,98296.88
2023-08-11T10:26:06.081Z,98303.56
2023-08-11T10:28:33.576Z,98306.47
2023-08-11T10:31:01.347Z,98304.09
2023-08-11T10:33:32.251Z,98302.72
2023-08-11T10:36:01.121Z,98309.53
2023-08-11T10:38:33.680Z,98308.22
2023-08-11T10:41:01.662Z,98312.56
2023-08-11T10:43:33.823Z,98303.00
2023-08-11T10:46:20.354Z,98306.78
2023-08-11T10:48:47.248Z,98312.25
2023-08-11T10:51:30.501Z,98313.75
2023-08-11T10:54:00.928Z,98299.72
2023-08-11T10:56:33.496Z,98293.63
2023-08-11T10:59:09.632Z,98301.09
2023-08-11T11:01:38.424Z,98296.63
2023-08-11T11:04:07.937Z,98294.00
2023-08-11T11:06:36.439Z,98295.50
2023-08-11T11:09:04.423Z,98302.34
2023-08-11T11:11:32.057Z,98294.34
2023-08-11T11:13:59.438Z,98295.78
2023-08-11T11:16:27.433Z,98295.38
2023-08-11T11:18:54.677Z,98297.50
2023-08-11T11:21:21.744Z,98295.66
2023-08-11T11:23:50.419Z,98291.03
2023-08-11T11:26:23.818Z,98294.94
2023-08-11T11:28:51.627Z,98288.88
2023-08-11T11:31:19.728Z,98285.63
2023-08-11T11:33:47.342Z,98286.63
2023-08-11T11:36:14.543Z,98286.16
2023-08-11T11:38:42.505Z,98285.53
2023-08-11T11:41:19.828Z,98283.75
2023-08-11T11:43:48.749Z,98285.06
2023-08-11T11:46:17.456Z,98280.78
2023-08-11T11:48:49.864Z,98277.03
2023-08-11T11:51:19.138Z,98278.59
2023-08-11T11:53:46.675Z,98276.19
2023-08-11T11:56:17.447Z,98280.53
2023-08-11T11:58:47.213Z,98274.38
2023-08-11T12:01:16.029Z,98268.94
2023-08-11T12:03:45.456Z,98265.88
2023-08-11T12:06:13.234Z,98273.06
2023-08-11T12:08:43.913Z,98273.66
2023-08-11T12:11:12.895Z,98260.28
2023-08-11T12:13:41.338Z,98257.00
2023-08-11T12:16:09.933Z,98259.97
2023-08-11T12:18:39.054Z,98256.16
2023-08-11T12:21:07.458Z,98252.75
2023-08-11T12:23:34.688Z,98255.09
2023-08-11T12:26:01.950Z,98260.84
2023-08-11T12:28:29.325Z,98257.53
2023-08-11T12:30:57.718Z,98251.06
2023-08-11T12:33:24.684Z,98256.34
2023-08-11T12:35:52.072Z,98251.00
2023-08-11T12:38:21.212Z,98249.41
2023-08-11T12:40:49.454Z,98255.09
2023-08-11T12:43:17.307Z,98256.59
2023-08-11T12:45:48.149Z,98241.69
2023-08-11T12:48:16.061Z,98243.25
2023-08-11T12:50:43.341Z,98243.22
2023-08-11T12:53:10.378Z,98240.00
2023-08-11T12:55:40.606Z,98246.75
2023-08-11T12:58:09.263Z,98246.66
2023-08-11T13:00:37.586Z,98235.34
2023-08-11T13:03:05.127Z,98235.41
2023-08-11T13:05:32.733Z,98235.41
2023-08-11T13:07:59.637Z,98246.16
2023-08-11T13:10:26.803Z,98237.59
2023-08-11T13:12:54.174Z,98235.44
2023-08-11T13:15:21.586Z,98231.72
2023-08-11T13:17:48.612Z,98234.81
2023-08-11T13:20:16.442Z,98227.94
2023-08-11T13:22:43.717Z,98224.47
2023-08-11T13:25:11.163Z,98226.78
2023-08-11T13:27:38.821Z,98225.56
2023-08-11T13:30:10.079Z,98224.41
2023-08-11T13:32:37.040Z,98225.88
2023-08-11T13:35:06.356Z,98221.44
2023-08-11T13:37:33.303Z,98223.56
2023-08-11T13:40:01.519Z,98219.59
2023-08-11T13:42:28.620Z,98218.75
2023-08-11T13:44:55.538Z,98218.38
2023-08-11T13:47:22.411Z,98216.34
2023-08-11T13:49:49.215Z,98218.34
2023-08-11T13:52:16.038Z,98209.63
2023-08-11T13:55:03.174Z,98206.00
2023-08-11T13:57:30.180Z,98211.91
2023-08-11T13:59:59.086Z,98210.31
2023-08-11T14:02:27.837Z,98218.44
2023-08-11T14:04:54.856Z,98200.69
2023-08-11T14:07:30.554Z,98210.63
2023-08-11T14:09:59.748Z,98208.53
2023-08-11T14:12:26.548Z,98208.06
2023-08-11T14:14:53.396Z,98212.69
2023-08-11T14:17:20.199Z,98209.28
2023-08-11T14:19:47.055Z,98219.06
2023-08-11T14:22:13.860Z,98214.63
2023-08-11T14:24:40.812Z,98207.59
2023-08-11T14:27:07.623Z,98213.88
2023-08-11T14:29:34.465Z,98209.13
2023-08-11T14:32:14.269Z,98209.84
2023-08-11T14:34:48.146Z,98209.56
2023-08-11T14:37:17.379Z,98207.78
2023-08-11T14:39:45.876Z,98213.34
2023-08-11T14:42:14.979Z,98202.34
2023-08-11T14:44:42.229Z,98204.25
2023-08-11T14:47:14.098Z,98202.94
2023-08-11T14:49:42.100Z,98203.41
2023-08-11T14:52:09.403Z,98199.38
2023-08-11T14:54:36.912Z,98196.56
2023-08-11T14:57:03.950Z,98194.91
2023-08-11T14:59:30.935Z,98192.94
2023-08-11T15:01:57.739Z,98196.88
2023-08-11T15:04:24.590Z,98200.03
2023-08-11T15:06:51.400Z,98201.13
2023-08-11T15:09:18.337Z,98203.94
2023-08-11T15:11:45.265Z,98206.13
2023-08-11T15:14:12.103Z,98206.94
2023-08-11T15:16:38.966Z,98210.81
2023-08-11T15:19:05.799Z,98208.31
2023-08-11T15:21:32.591Z,98209.66
2023-08-11T15:23:59.424Z,98208.84
2023-08-11T15:26:26.590Z,98210.13
2023-08-11T15:28:53.470Z,98204.78
2023-08-11T15:31:20.359Z,98200.28
2023-08-11T15:33:47.346Z,98206.06
2023-08-11T15:36:14.154Z,98207.34
2023-08-11T15:38:40.986Z,98213.34
2023-08-11T15:41:07.854Z,98203.63
2023-08-11T15:43:34.713Z,98211.88
2023-08-11T15:46:01.524Z,98208.38
2023-08-11T15:48:28.949Z,98205.50
2023-08-11T15:50:56.664Z,98206.56
2023-08-11T15:53:23.451Z,98215.31
2023-08-11T15:55:50.325Z,98209.16
2023-08-11T15:58:17.081Z,98211.41
2023-08-11T16:00:43.981Z,98205.16
2023-08-11T16:03:10.897Z,98210.50
2023-08-11T16:05:37.900Z,98208.53
2023-08-11T16:08:05.044Z,98210.41
2023-08-11T16:10:36.270Z,98208.16
2023-08-11T16:13:03.479Z,98208.97
2023-08-11T16:15:30.896Z,98213.44
2023-08-11T16:17:57.862Z,98213.25
2023-08-11T16:20:24.699Z,98209.84
2023-08-11T16:22:53.218Z,98206.72
2023-08-11T16:25:20.381Z,98200.13
2023-08-11T16:27:47.243Z,98209.31
2023-08-11T16:30:14.227Z,98211.22
2023-08-11T16:32:41.072Z,98212.25
2023-08-11T16:35:09.097Z,98208.94
2023-08-11T16:37:36.065Z,98222.88
2023-08-11T16:40:03.978Z,98225.00
2023-08-11T16:42:30.828Z,98223.63
2023-08-11T16:44:57.666Z,98229.47
2023-08-11T16:47:24.485Z,98223.31
2023-08-11T16:49:51.759Z,98225.00
2023-08-11T16:52:18.560Z,98233.69
2023-08-11T16:54:45.329Z,98223.97
2023-08-11T16:57:13.097Z,98233.72
2023-08-11T16:59:40.393Z,98229.63
2023-08-11T17:02:07.263Z,98232.59
2023-08-11T17:04:34.124Z,98241.28
2023-08-11T17:07:00.984Z,98235.69
2023-08-11T17:09:27.799Z,98235.31
2023-08-11T17:11:54.678Z,98236.56
2023-08-11T17:14:21.527Z,98235.56
2023-08-11T17:16:48.382Z,98233.88
2023-08-11T17:19:15.270Z,98239.06
2023-08-11T17:21:43.325Z,98224.03
2023-08-11T17:24:10.261Z,98231.84
2023-08-11T17:26:38.646Z,98235.56
2023-08-11T17:29:05.534Z,98242.09
2023-08-11T17:31:32.567Z,98235.91
2023-08-11T17:33:59.538Z,98249.91
2023-08-11T17:36:30.051Z,98241.03
2023-08-11T17:39:00.346Z,98242.03
2023-08-11T17:41:27.898Z,98244.47
2023-08-11T17:43:55.888Z,98245.72
2023-08-11T17:46:22.908Z,98253.53
2023-08-11T17:48:53.620Z,98254.63
2023-08-11T17:51:21.870Z,98263.22
2023-08-11T17:53:59.546Z,98257.19
2023-08-11T17:56:36.968Z,98252.56
2023-08-11T17:59:04.079Z,98255.13
2023-08-11T18:01:31.850Z,98256.75
2023-08-11T18:04:03.511Z,98251.34
2023-08-11T18:06:34.561Z,98268.75
2023-08-11T18:09:01.687Z,98268.03
2023-08-11T18:11:29.485Z,98266.06
2023-08-11T18:13:56.858Z,98263.94
2023-08-11T18:16:24.502Z,98273.28
2023-08-11T18:18:51.375Z,98272.56
2023-08-11T18:21:21.259Z,98277.41
2023-08-11T18:23:48.516Z,98277.44
2023-08-11T18:26:17.609Z,98278.91
2023-08-11T18:28:44.704Z,98282.25
2023-08-11T18:31:11.729Z,98289.97
2023-08-11T18:33:38.733Z,98288.44
2023-08-11T18:36:05.737Z,98286.13
2023-08-11T18:38:32.560Z,98287.63
2023-08-11T18:40:59.421Z,98296.72
2023-08-11T18:43:26.435Z,98303.81
2023-08-11T18:45:53.307Z,98300.88
2023-08-11T18:48:20.130Z,98301.22
2023-08-11T18:50:47.116Z,98301.97
2023-08-11T18:53:14.206Z,98299.47
2023-08-11T18:55:41.096Z,98308.00
2023-08-11T18:58:08.058Z,98311.72
2023-08-11T19:00:34.980Z,98318.78
2023-08-11T19:03:01.886Z,98315.47
2023-08-11T19:05:29.258Z,98316.22
2023-08-11T19:07:56.078Z,98317.63
2023-08-11T19:10:29.122Z,98321.38
2023-08-11T19:12:56.025Z,98320.41
2023-08-11T19:15:22.900Z,98313.16
2023-08-11T19:17:49.753Z,98322.63
2023-08-11T19:20:16.904Z,98329.97
2023-08-11T19:22:43.780Z,98329.03
2023-08-11T19:25:12.090Z,98329.25
2023-08-11T19:27:39.410Z,98334.97
2023-08-11T19:30:07.797Z,98330.63
2023-08-11T19:32:35.987Z,98330.19
2023-08-11T19:35:03.625Z,98323.38
2023-08-11T19:37:30.515Z,98328.03
2023-08-11T19:39:57.504Z,98323.56
2023-08-11T19:42:24.452Z,98332.59
2023-08-11T19:44:51.380Z,98324.09
2023-08-11T19:47:18.164Z,98319.97
2023-08-11T19:49:44.989Z,98318.81
2023-08-11T19:52:12.506Z,98321.81
2023-08-11T19:54:39.614Z,98318.47
2023-08-11T19:57:06.533Z,98315.63
2023-08-11T19:59:33.396Z,98318.81
2023-08-11T20:02:00.318Z,98322.84
2023-08-11T20:04:27.173Z,98324.84
2023-08-11T20:06:53.975Z,98328.38
2023-08-11T20:09:23.372Z,98333.19
2023-08-11T20:11:51.097Z,98331.56
2023-08-11T20:14:19.884Z,98338.69
2023-08-11T20:16:47.491Z,98340.72
2023-08-11T20:19:14.363Z,98335.28
2023-08-11T20:21:43.310Z,98333.44
2023-08-11T20:24:10.185Z,98339.63
2023-08-11T20:26:37.185Z,98343.28
2023-08-11T20:29:04.435Z,98341.63
2023-08-11T20:31:34.084Z,98340.47
2023-08-11T20:34:01.537Z,98335.81
2023-08-11T20:36:28.558Z,98340.97
2023-08-11T20:38:55.364Z,98345.13
2023-08-11T20:41:22.250Z,98339.31
2023-08-11T20:43:49.727Z,98341.97
2023-08-11T20:46:16.919Z,98338.28
2023-08-11T20:48:43.946Z,98341.97
2023-08-11T20:51:12.950Z,98345.94
2023-08-11T20:53:40.203Z,98344.59
2023-08-11T20:56:09.327Z,98348.94
2023-08-11T20:58:36.673Z,98348.91
2023-08-11T21:01:03.666Z,98346.28
2023-08-11T21:03:30.753Z,98346.59
2023-08-11T21:05:57.674Z,98354.56
2023-08-11T21:08:24.538Z,98342.78
2023-08-11T21:10:51.540Z,98349.56
2023-08-11T21:13:18.354Z,98358.69
2023-08-11T21:15:45.175Z,98345.91
2023-08-11T21:18:12.288Z,98347.75
2023-08-11T21:20:39.614Z,98347.94
2023-08-11T21:23:07.031Z,98358.88
2023-08-11T21:25:34.986Z,98346.25
2023-08-11T21:28:02.096Z,98352.06
2023-08-11T21:30:29.021Z,98351.88
2023-08-11T21:32:55.928Z,98350.22
2023-08-11T21:35:22.934Z,98352.22
2023-08-11T21:37:50.078Z,98350.38
2023-08-11T21:40:17.209Z,98347.03
2023-08-11T21:42:44.912Z,98355.34
2023-08-11T21:45:12.026Z,98354.97
2023-08-11T21:47:39.202Z,98356.13
2023-08-11T21:50:07.237Z,98354.97
2023-08-11T21:52:34.474Z,98351.50
2023-08-11T21:55:01.320Z,98354.78
2023-08-11T21:57:28.241Z,98353.97
2023-08-11T21:59:55.106Z,98349.47
2023-08-11T22:02:21.977Z,98347.97
2023-08-11T22:04:48.921Z,98360.09
2023-08-11T22:07:16.034Z,98348.78
2023-08-11T22:09:43.917Z,98355.59
2023-08-11T22:12:12.163Z,98360.91
2023-08-11T22:14:39.594Z,98360.38
2023-08-11T22:17:06.460Z,98351.94
2023-08-11T22:19:36.455Z,98351.44
2023-08-11T22:22:08.550Z,98352.56
2023-08-11T22:24:41.333Z,98354.66
2023-08-11T22:27:10.490Z,98352.47
2023-08-11T22:29:38.056Z,98352.31
2023-08-11T22:32:05.090Z,98354.44
2023-08-11T22:34:31.946Z,98353.81
2023-08-11T22:36:58.760Z,98347.94
2023-08-11T22:39:25.598Z,98340.25
2023-08-11T22:41:52.358Z,98341.19
2023-08-11T22:44:19.169Z,98341.50
2023-08-11T22:46:46.090Z,98338.19
2023-08-11T22:49:12.981Z,98336.88
2023-08-11T22:51:39.859Z,98341.81
2023-08-11T22:54:06.689Z,98340.50
2023-08-11T22:56:33.608Z,98344.09
2023-08-11T22:59:00.489Z,98336.00
2023-08-11T23:01:27.427Z,98331.63
2023-08-11T23:03:54.305Z,98326.34
2023-08-11T23:06:21.295Z,98331.16
2023-08-11T23:08:48.019Z,98324.28
2023-08-11T23:11:14.820Z,98319.78
2023-08-11T23:13:41.629Z,98327.88
2023-08-11T23:16:08.572Z,98331.91
2023-08-11T23:18:35.372Z,98329.88
2023-08-11T23:21:02.164Z,98321.56
2023-08-11T23:23:28.971Z,98318.50
2023-08-11T23:25:55.878Z,98321.28
2023-08-11T23:28:22.783Z,98321.16
2023-08-11T23:30:49.617Z,98316.47
2023-08-11T23:33:16.748Z,98317.00
2023-08-11T23:35:43.582Z,98314.47
2023-08-11T23:38:11.906Z,98308.03
2023-08-11T23:40:39.022Z,98311.44
2023-08-11T23:43:06.133Z,98315.88
2023-08-11T23:45:33.062Z,98307.09
2023-08-11T23:48:00.127Z,98310.28
2023-08-11T23:50:27.755Z,98306.19
2023-08-11T23:52:54.575Z,98311.50
2023-08-11T23:55:21.595Z,98309.97
2023-08-11T23:57:48.513Z,98308.84
